Time;durP1;ratioP1;P1;durP2;ratioP2;P2;SDS_P1;SDS_P2;PMS_P1;PMS_P2;Temp;Humidity;BMP_temperature;BMP_pressure;BME280_temperature;BME280_humidity;BME280_pressure;Samples;Min_cycle;Max_cycle;Signal;HPM_P1;HPM_P2
2022/02/28 00:01:26;;;;;;;;;;;;;;;22.20;22.44;97988.66;5094867;28;1174;-75
2022/02/28 00:03:52;;;;;;;;;;;;;;;22.44;21.94;97985.56;5094829;28;1108;-73
2022/02/28 00:06:18;;;;;;;;;;;;;;;22.16;22.00;97982.28;5095222;28;909;-73
2022/02/28 00:08:43;;;;;;;;;;;;;;;21.92;22.44;97981.75;5094821;28;1905;-74
2022/02/28 00:11:09;;;;;;;;;;;;;;;21.90;22.52;97980.59;5094948;28;962;-73
2022/02/28 00:13:34;;;;;;;;;;;;;;;22.30;22.08;97984.72;5095251;28;934;-75
2022/02/28 00:15:59;;;;;;;;;;;;;;;22.53;22.05;97985.66;5042428;28;1067;-74
2022/02/28 00:18:25;;;;;;;;;;;;;;;22.25;21.93;97984.47;5095113;28;1069;-74
2022/02/28 00:20:50;;;;;;;;;;;;;;;22.08;22.41;97975.22;5094799;28;877;-74
2022/02/28 00:23:16;;;;;;;;;;;;;;;21.84;22.76;97981.16;5095164;28;900;-73
2022/02/28 00:25:41;;;;;;;;;;;;;;;22.14;22.54;97979.13;5098115;28;942;-74
2022/02/28 00:28:07;;;;;;;;;;;;;;;22.34;22.32;97973.28;5035335;28;1971;-75
2022/02/28 00:30:33;;;;;;;;;;;;;;;22.45;21.92;97975.78;5036047;28;970;-75
2022/02/28 00:32:59;;;;;;;;;;;;;;;22.14;22.37;97979.13;5035471;28;1025;-73
2022/02/28 00:35:24;;;;;;;;;;;;;;;21.98;22.48;97976.34;5035544;28;935;-74
2022/02/28 00:37:50;;;;;;;;;;;;;;;21.79;22.84;97970.38;5035641;28;972;-74
2022/02/28 00:40:16;;;;;;;;;;;;;;;22.32;22.08;97973.72;5036001;28;1012;-75
2022/02/28 00:42:41;;;;;;;;;;;;;;;22.47;21.88;97967.63;5019066;28;935;-75
2022/02/28 00:45:07;;;;;;;;;;;;;;;22.10;22.07;97967.88;5035630;28;1091;-74
2022/02/28 00:47:32;;;;;;;;;;;;;;;21.82;22.50;97960.97;5015170;28;1026;-75
2022/02/28 00:49:58;;;;;;;;;;;;;;;21.75;23.00;97966.81;5015715;28;1910;-74
2022/02/28 00:52:23;;;;;;;;;;;;;;;22.11;22.12;97963.00;4957115;28;1174;-75
2022/02/28 00:54:49;;;;;;;;;;;;;;;22.32;22.18;97973.72;4957120;28;1029;-74
2022/02/28 00:57:14;;;;;;;;;;;;;;;22.65;21.42;97973.53;4937712;29;940;-74
2022/02/28 00:59:39;;;;;;;;;;;;;;;22.09;22.48;97971.16;4946583;29;1355;-74
2022/02/28 01:02:05;;;;;;;;;;;;;;;21.78;22.83;97974.44;4956690;29;1223;-75
2022/02/28 01:04:30;;;;;;;;;;;;;;;21.68;23.05;97981.19;4956868;29;960;-74
2022/02/28 01:06:56;;;;;;;;;;;;;;;22.11;22.27;97980.00;4937710;29;1129;-73
2022/02/28 01:09:22;;;;;;;;;;;;;;;22.33;21.92;97972.50;4937803;29;1983;-74
2022/02/28 01:11:47;;;;;;;;;;;;;;;22.09;22.24;97976.81;4937704;29;1007;-74
2022/02/28 01:14:13;;;;;;;;;;;;;;;21.97;22.42;97963.41;4956352;29;1420;-74
2022/02/28 01:16:38;;;;;;;;;;;;;;;21.82;22.75;97969.47;4937372;29;1733;-74
2022/02/28 01:19:04;;;;;;;;;;;;;;;21.99;22.36;97964.53;4931782;29;1097;-74
2022/02/28 01:21:29;;;;;;;;;;;;;;;22.41;21.89;97958.88;4937027;29;1052;-74
2022/02/28 01:23:55;;;;;;;;;;;;;;;22.65;21.38;97953.69;4918060;29;1068;-74
2022/02/28 01:26:21;;;;;;;;;;;;;;;22.15;22.34;97951.59;4918080;29;1129;-75
2022/02/28 01:28:46;;;;;;;;;;;;;;;21.78;22.62;97951.78;4918127;29;1915;-75
2022/02/28 01:31:12;;;;;;;;;;;;;;;21.88;22.52;97951.94;4904790;29;1133;-74
2022/02/28 01:33:37;;;;;;;;;;;;;;;22.32;22.11;97948.19;4898891;29;1261;-74
2022/02/28 01:36:03;;;;;;;;;;;;;;;22.41;22.09;97953.22;4898990;29;1112;-74
2022/02/28 01:38:28;;;;;;;;;;;;;;;21.95;22.39;97954.56;4872620;29;972;-74
2022/02/28 01:40:54;;;;;;;;;;;;;;;21.82;22.54;97952.47;4861927;29;1116;-74
2022/02/28 01:43:19;;;;;;;;;;;;;;;21.91;22.47;97954.66;4898621;29;940;-74
2022/02/28 01:45:44;;;;;;;;;;;;;;;22.35;22.14;97944.47;4899026;29;1053;-74
2022/02/28 01:48:10;;;;;;;;;;;;;;;22.40;21.86;97945.16;4912096;29;1910;-74
2022/02/28 01:50:36;;;;;;;;;;;;;;;22.39;22.10;97946.41;4931233;29;1286;-73
2022/02/28 01:53:02;;;;;;;;;;;;;;;22.04;22.23;97941.31;4936586;29;1105;-74
2022/02/28 01:55:28;;;;;;;;;;;;;;;21.92;22.42;97938.47;4931154;29;1287;-74
2022/02/28 01:57:53;;;;;;;;;;;;;;;22.03;22.41;97928.41;4950391;29;949;-74
2022/02/28 02:00:20;;;;;;;;;;;;;;;22.30;22.29;97947.88;4955757;28;1732;-73
2022/02/28 02:02:45;;;;;;;;;;;;;;;22.32;22.04;97944.56;4936128;29;1664;-75
2022/02/28 02:05:11;;;;;;;;;;;;;;;22.19;22.24;97946.59;4903992;29;1039;-75
2022/02/28 02:07:36;;;;;;;;;;;;;;;22.04;22.39;97941.31;4914317;29;1224;-75
2022/02/28 02:10:03;;;;;;;;;;;;;;;21.84;22.69;97941.50;4898812;29;1915;-74
2022/02/28 02:12:28;;;;;;;;;;;;;;;22.25;22.18;97945.59;4898389;29;963;-74
2022/02/28 02:14:54;;;;;;;;;;;;;;;22.48;22.13;97943.69;4917362;29;1299;-75
2022/02/28 02:17:20;;;;;;;;;;;;;;;22.48;21.80;97943.69;4917246;29;1193;-74
2022/02/28 02:19:45;;;;;;;;;;;;;;;22.04;22.25;97941.31;4897102;29;1074;-74
2022/02/28 02:22:11;;;;;;;;;;;;;;;21.85;22.42;97934.56;4879538;29;1061;-75
2022/02/28 02:24:36;;;;;;;;;;;;;;;21.77;22.71;97932.41;4893474;29;971;-74
2022/02/28 02:27:02;;;;;;;;;;;;;;;22.29;22.21;97929.28;4896137;29;1064;-75
2022/02/28 02:29:27;;;;;;;;;;;;;;;22.50;22.04;97938.38;4916984;29;1935;-74
2022/02/28 02:31:53;;;;;;;;;;;;;;;22.39;21.80;97935.06;4917281;29;1260;-74
2022/02/28 02:34:18;;;;;;;;;;;;;;;21.97;22.24;97929.41;4892877;29;1155;-75
2022/02/28 02:36:44;;;;;;;;;;;;;;;21.89;22.37;97925.19;4898194;29;1250;-74
2022/02/28 02:39:09;;;;;;;;;;;;;;;22.01;22.62;97924.41;4897694;29;1084;-75
2022/02/28 02:41:34;;;;;;;;;;;;;;;22.40;22.03;97916.81;4915779;29;1271;-75
2022/02/28 02:44:00;;;;;;;;;;;;;;;22.45;22.01;97907.75;4879091;29;1002;-74
2022/02/28 02:46:26;;;;;;;;;;;;;;;22.28;21.75;97910.69;4879998;29;1412;-74
2022/02/28 02:49:11;;;;;;;;;;;;;;;21.90;22.44;97912.63;4897875;29;1982;-74
2022/02/28 02:51:36;;;;;;;;;;;;;;;21.77;22.61;97910.56;4898204;29;1270;-75
2022/02/28 02:54:02;;;;;;;;;;;;;;;22.09;22.47;97909.59;4897581;29;1275;-74
2022/02/28 02:56:29;;;;;;;;;;;;;;;22.42;21.93;97897.31;4898184;29;1229;-75
2022/02/28 02:58:55;;;;;;;;;;;;;;;22.49;21.60;97897.88;4897699;29;1255;-74
2022/02/28 03:01:21;;;;;;;;;;;;;;;22.60;21.59;97903.22;4898020;29;1245;-74
2022/02/28 03:03:47;;;;;;;;;;;;;;;22.14;21.79;97893.31;4897878;29;1243;-74
2022/02/28 03:06:12;;;;;;;;;;;;;;;21.94;22.37;97884.97;4881810;29;983;-74
2022/02/28 03:08:38;;;;;;;;;;;;;;;21.78;22.61;97895.13;4878870;29;1911;-75
2022/02/28 03:11:03;;;;;;;;;;;;;;;22.39;21.96;97898.22;4897500;29;1579;-74
2022/02/28 03:13:29;;;;;;;;;;;;;;;22.41;21.86;97896.50;4913732;29;1452;-74
2022/02/28 03:15:56;;;;;;;;;;;;;;;22.40;21.62;97888.47;4933167;29;1105;-75
2022/02/28 03:18:22;;;;;;;;;;;;;;;21.98;22.41;97894.19;4935541;29;1141;-74
2022/02/28 03:20:48;;;;;;;;;;;;;;;21.87;22.20;97888.81;4935840;29;895;-74
2022/02/28 03:23:13;;;;;;;;;;;;;;;21.97;22.47;97895.44;4948443;28;1003;-75
2022/02/28 03:25:40;;;;;;;;;;;;;;;22.38;21.96;97896.63;4993575;28;1226;-74
2022/02/28 03:28:07;;;;;;;;;;;;;;;22.38;21.70;97902.28;4993070;28;1906;-74
2022/02/28 03:30:34;;;;;;;;;;;;;;;22.40;21.47;97902.66;4954818;29;1651;-74
2022/02/28 03:33:00;;;;;;;;;;;;;;;21.96;21.84;97900.28;4954433;29;1141;-74
2022/02/28 03:35:26;;;;;;;;;;;;;;;21.79;22.09;97899.56;4916350;29;1173;-74
2022/02/28 03:37:52;;;;;;;;;;;;;;;22.07;22.24;97899.94;4916159;29;1102;-74
2022/02/28 03:43:43;;;;;;;;;;;;;;;22.31;21.81;97887.09;4941686;28;1013;-74
2022/02/28 03:46:20;;;;;;;;;;;;;;;22.43;21.58;97887.53;4973608;28;1267;-74
2022/02/28 03:49:04;;;;;;;;;;;;;;;21.88;22.42;97886.78;4973449;28;1973;-74
2022/02/28 03:51:39;;;;;;;;;;;;;;;21.71;22.18;97886.88;4974001;28;1105;-74
2022/02/28 03:54:13;;;;;;;;;;;;;;;22.21;21.79;97887.44;4957682;28;1092;-75
2022/02/28 03:56:39;;;;;;;;;;;;;;;22.42;21.45;97886.75;4973416;28;1262;-74
2022/02/28 03:59:05;;;;;;;;;;;;;;;22.50;21.37;97876.78;4880356;29;1469;-75
2022/02/28 04:01:31;;;;;;;;;;;;;;;22.12;21.83;97862.59;4890491;29;1390;-73
2022/02/28 04:03:56;;;;;;;;;;;;;;;22.06;21.92;97875.69;4901116;29;1283;-75
2022/02/28 04:06:22;;;;;;;;;;;;;;;22.07;22.18;97865.94;4919129;29;1220;-75
2022/02/28 04:08:48;;;;;;;;;;;;;;;22.38;21.78;97865.44;4919546;29;1899;-75
2022/02/28 04:11:13;;;;;;;;;;;;;;;22.49;21.57;97869.53;4938743;29;1129;-75
2022/02/28 04:13:39;;;;;;;;;;;;;;;22.51;21.57;97863.41;4954304;29;1389;-75
2022/02/28 04:16:07;;;;;;;;;;;;;;;22.03;22.17;97859.63;4957630;29;1234;-76
2022/02/28 04:18:33;;;;;;;;;;;;;;;21.76;22.16;97860.81;4940975;29;1402;-75
2022/02/28 04:21:21;;;;;;;;;;;;;;;22.09;21.91;97846.47;4955614;29;1053;-76
2022/02/28 04:23:51;;;;;;;;;;;;;;;22.36;21.48;97858.19;4941493;29;1155;-75
2022/02/28 04:26:17;;;;;;;;;;;;;;;22.53;21.61;97855.22;4941370;29;1124;-76
2022/02/28 04:28:42;;;;;;;;;;;;;;;22.63;21.38;97851.25;4919009;29;1915;-76
2022/02/28 04:31:08;;;;;;;;;;;;;;;22.61;21.41;97850.91;4924415;29;1469;-75
2022/02/28 04:33:33;;;;;;;;;;;;;;;22.30;21.47;97857.16;4957398;29;1239;-76
2022/02/28 04:35:59;;;;;;;;;;;;;;;21.99;22.02;97851.22;4938078;29;1270;-76
2022/02/28 04:38:24;;;;;;;;;;;;;;;21.91;22.26;97840.53;4920482;29;1164;-75
2022/02/28 04:40:50;;;;;;;;;;;;;;;22.15;21.80;97855.22;4939415;29;1523;-75
2022/02/28 04:43:15;;;;;;;;;;;;;;;22.36;21.77;97855.34;4944300;29;1847;-76
2022/02/28 04:45:43;;;;;;;;;;;;;;;22.58;21.21;97844.09;4938970;29;1567;-76
2022/02/28 04:48:11;;;;;;;;;;;;;;;22.57;21.16;97838.88;4901112;29;1908;-75
2022/02/28 04:51:05;;;;;;;;;;;;;;;22.07;21.74;97843.28;4916096;29;1025;-76
2022/02/28 04:53:31;;;;;;;;;;;;;;;21.82;22.01;97839.19;4915419;29;1410;-76
2022/02/28 04:55:58;;;;;;;;;;;;;;;22.20;21.87;97852.63;4918951;29;1750;-76
2022/02/28 04:58:24;;;;;;;;;;;;;;;22.48;21.61;97844.44;4918719;29;1105;-74
2022/02/28 05:01:08;;;;;;;;;;;;;;;22.52;21.47;97851.59;4957238;29;1370;-75
2022/02/28 05:03:36;;;;;;;;;;;;;;;21.86;22.25;97856.06;4956732;29;1298;-76
2022/02/28 05:06:02;;;;;;;;;;;;;;;21.73;22.04;97860.91;4918369;29;1021;-75
2022/02/28 05:08:28;;;;;;;;;;;;;;;21.94;22.26;97863.09;4937518;29;1967;-75
2022/02/28 05:10:54;;;;;;;;;;;;;;;22.30;21.78;97845.81;4934815;29;1372;-75
2022/02/28 05:13:19;;;;;;;;;;;;;;;22.44;21.48;97861.59;4908254;29;1054;-75
2022/02/28 05:15:46;;;;;;;;;;;;;;;22.56;21.13;97848.66;4918316;29;1259;-75
2022/02/28 05:18:14;;;;;;;;;;;;;;;22.45;21.54;97856.72;4918318;29;1083;-76
2022/02/28 05:20:40;;;;;;;;;;;;;;;22.13;21.87;97864.19;4934577;29;1097;-75
2022/02/28 05:23:05;;;;;;;;;;;;;;;22.02;22.02;97866.50;4934303;29;1223;-75
2022/02/28 05:25:31;;;;;;;;;;;;;;;22.16;21.83;97863.28;4937759;29;1222;-75
2022/02/28 05:27:56;;;;;;;;;;;;;;;22.39;21.74;97881.22;4955865;29;1910;-75
2022/02/28 05:30:22;;;;;;;;;;;;;;;22.54;21.43;97876.69;4936611;29;1089;-76
2022/02/28 05:32:51;;;;;;;;;;;;;;;22.48;21.25;97872.81;4932091;29;1053;-75
2022/02/28 05:35:23;;;;;;;;;;;;;;;22.01;21.95;97879.09;4899524;29;1212;-75
2022/02/28 05:38:01;;;;;;;;;;;;;;;21.82;22.09;97867.50;4899551;29;1711;-76
2022/02/28 05:40:29;;;;;;;;;;;;;;;22.07;21.78;97874.44;4934930;29;1532;-76
2022/02/28 05:42:54;;;;;;;;;;;;;;;22.34;21.20;97891.88;4936042;29;1827;-75
2022/02/28 05:45:20;;;;;;;;;;;;;;;22.38;21.71;97880.41;4937415;28;1600;-77
2022/02/28 05:47:53;;;;;;;;;;;;;;;22.57;21.21;97875.75;4920493;29;1907;-76
2022/02/28 05:50:19;;;;;;;;;;;;;;;22.26;21.31;97876.31;4937553;29;1089;-77
2022/02/28 05:52:45;;;;;;;;;;;;;;;22.08;21.38;97878.91;4917932;29;956;-77
2022/02/28 05:55:11;;;;;;;;;;;;;;;21.89;21.96;97879.88;4886620;29;1034;-76
2022/02/28 05:57:37;;;;;;;;;;;;;;;22.31;21.59;97887.09;4879820;29;1038;-76
2022/02/28 06:00:03;;;;;;;;;;;;;;;22.39;21.25;97884.06;4934786;29;1008;-76
2022/02/28 06:02:38;;;;;;;;;;;;;;;22.51;21.10;97883.25;4936378;29;1067;-76
2022/02/28 06:05:03;;;;;;;;;;;;;;;22.50;21.04;97893.00;4937248;29;1029;-76
2022/02/28 06:07:29;;;;;;;;;;;;;;;22.08;21.38;97895.91;4883110;29;1893;-75
2022/02/28 06:09:54;;;;;;;;;;;;;;;21.74;22.01;97897.28;4899367;29;1935;-76
2022/02/28 06:15:54;;;;;;;;;;;;;;;22.31;21.56;97908.97;4898591;29;1018;-76
2022/02/28 06:18:20;;;;;;;;;;;;;;;22.51;21.35;97905.94;4923448;29;1022;-77
2022/02/28 06:20:45;;;;;;;;;;;;;;;22.65;20.87;97918.88;4935478;29;1589;-76
2022/02/28 06:23:14;;;;;;;;;;;;;;;22.11;21.29;97914.84;4964255;28;1371;-76
2022/02/28 06:25:42;;;;;;;;;;;;;;;21.87;21.74;97919.19;4990154;28;1860;-76
2022/02/28 06:28:08;;;;;;;;;;;;;;;21.90;21.91;97926.78;5000221;28;1977;-77
2022/02/28 06:30:33;;;;;;;;;;;;;;;22.28;21.67;97933.38;5018904;28;1171;-77
2022/02/28 06:32:59;;;;;;;;;;;;;;;22.31;21.35;97926.78;5013678;28;1191;-76
2022/02/28 06:35:24;;;;;;;;;;;;;;;22.36;21.35;97929.06;5052268;28;1000;-76
2022/02/28 06:37:49;;;;;;;;;;;;;;;22.03;21.67;97928.41;5073327;28;1039;-75
2022/02/28 06:40:15;;;;;;;;;;;;;;;21.87;21.74;97933.34;5048266;28;1502;-76
2022/02/28 06:42:40;;;;;;;;;;;;;;;21.89;21.79;97917.50;5022159;28;1530;-77
2022/02/28 06:45:06;;;;;;;;;;;;;;;22.34;21.34;97919.41;4984836;28;1512;-77
2022/02/28 06:47:32;;;;;;;;;;;;;;;22.43;21.31;97932.91;4963485;28;1707;-76
2022/02/28 06:49:57;;;;;;;;;;;;;;;22.47;20.90;97933.59;4947887;28;1915;-76
2022/02/28 06:52:26;;;;;;;;;;;;;;;22.19;21.37;97933.22;4944765;28;1529;-76
2022/02/28 06:54:56;;;;;;;;;;;;;;;21.76;21.80;97944.97;4944897;29;1529;-76
2022/02/28 06:57:21;;;;;;;;;;;;;;;21.73;21.84;97938.16;4936641;29;1054;-76
2022/02/28 06:59:47;;;;;;;;;;;;;;;22.31;21.26;97940.94;4916617;29;1135;-76
2022/02/28 07:02:12;;;;;;;;;;;;;;;22.27;21.27;97942.28;4916731;29;1200;-77
2022/02/28 07:04:44;;;;;;;;;;;;;;;22.48;21.23;97946.53;4916973;29;1013;-77
2022/02/28 07:07:13;;;;;;;;;;;;;;;22.36;21.13;97951.72;4917090;29;1865;-76
2022/02/28 07:09:38;;;;;;;;;;;;;;;21.97;21.41;97940.75;4899898;29;1903;-76
2022/02/28 07:12:04;;;;;;;;;;;;;;;21.75;21.97;97941.34;4916448;29;1042;-76
2022/02/28 07:14:29;;;;;;;;;;;;;;;22.13;21.68;97948.41;4913333;29;992;-76
2022/02/28 07:16:55;;;;;;;;;;;;;;;22.29;21.20;97951.94;4900684;29;1023;-76
2022/02/28 07:19:20;;;;;;;;;;;;;;;22.46;20.89;97952.66;4948370;29;984;-75
2022/02/28 07:21:46;;;;;;;;;;;;;;;22.36;20.91;97946.06;4961512;28;1125;-77
2022/02/28 07:24:11;;;;;;;;;;;;;;;22.05;21.33;97945.75;4993538;28;1112;-77
2022/02/28 07:26:37;;;;;;;;;;;;;;;21.89;21.75;97945.03;4993717;28;1234;-76
2022/02/28 07:29:02;;;;;;;;;;;;;;;22.15;21.58;97946.72;4957787;28;1907;-76
2022/02/28 07:31:28;;;;;;;;;;;;;;;22.34;21.14;97948.56;4959312;28;1268;-76
2022/02/28 07:33:53;;;;;;;;;;;;;;;22.35;21.28;97944.47;4958191;28;1008;-76
2022/02/28 07:36:18;;;;;;;;;;;;;;;22.39;21.37;97949.25;4961213;29;879;-77
2022/02/28 07:38:44;;;;;;;;;;;;;;;22.23;21.38;97953.75;4906417;29;1039;-76
2022/02/28 07:41:09;;;;;;;;;;;;;;;21.95;21.69;97954.56;4920219;29;2002;-76
2022/02/28 07:43:35;;;;;;;;;;;;;;;21.95;21.52;97948.88;4917628;29;2327;-75
2022/02/28 07:46:00;;;;;;;;;;;;;;;22.36;21.21;97945.25;4933713;29;1782;-75
2022/02/28 07:48:29;;;;;;;;;;;;;;;22.70;21.19;97953.13;4940412;28;1914;-75
2022/02/28 07:50:54;;;;;;;;;;;;;;;22.28;21.22;97952.41;4962487;28;1909;-76
2022/02/28 07:53:19;;;;;;;;;;;;;;;21.98;22.07;97957.28;4976366;28;1851;-77
2022/02/28 07:55:45;;;;;;;;;;;;;;;21.84;22.19;97950.00;4989831;28;1627;-75
2022/02/28 07:58:11;;;;;;;;;;;;;;;21.95;22.18;97954.56;4993596;28;1944;-77
2022/02/28 08:00:36;;;;;;;;;;;;;;;22.30;21.42;97953.53;5010321;28;975;-76
2022/02/28 08:03:02;;;;;;;;;;;;;;;22.40;21.25;97953.66;5034966;28;1884;-77
2022/02/28 08:05:27;;;;;;;;;;;;;;;22.60;20.83;97948.59;5038738;28;2047;-77
2022/02/28 08:07:53;;;;;;;;;;;;;;;22.08;21.80;97959.03;5053193;28;1890;-77
2022/02/28 08:10:18;;;;;;;;;;;;;;;21.88;21.71;97949.91;5089837;28;1660;-75
2022/02/28 08:12:43;;;;;;;;;;;;;;;21.84;21.99;97954.84;5073071;28;937;-77
2022/02/28 08:15:10;;;;;;;;;;;;;;;22.20;21.70;97966.00;5092435;28;2060;-77
2022/02/28 08:17:35;;;;;;;;;;;;;;;22.32;21.54;97968.03;5094567;28;2140;-76
2022/02/28 08:20:00;;;;;;;;;;;;;;;22.45;21.44;97961.63;5103025;28;969;-77
2022/02/28 08:22:26;;;;;;;;;;;;;;;22.03;21.71;97964.44;5101074;28;2032;-76
2022/02/28 08:24:51;;;;;;;;;;;;;;;22.01;21.42;97970.53;5103411;28;987;-76
2022/02/28 08:27:17;;;;;;;;;;;;;;;22.00;21.93;97968.16;5102238;28;974;-78
2022/02/28 08:29:42;;;;;;;;;;;;;;;22.41;21.30;97963.75;5357744;22;3414;-72
2022/02/28 08:32:08;;;;;;;;;;;;;;;22.69;20.66;97968.56;5102851;28;946;-72
2022/02/28 08:34:33;;;;;;;;;;;;;;;22.26;21.08;97969.84;5102678;28;922;-72
2022/02/28 08:36:59;;;;;;;;;;;;;;;21.90;21.75;97972.09;5093591;28;1654;-72
2022/02/28 08:39:24;;;;;;;;;;;;;;;22.00;21.84;97968.97;5095644;28;1707;-72
2022/02/28 08:41:50;;;;;;;;;;;;;;;22.30;21.38;97970.53;5079265;28;1834;-72
2022/02/28 08:44:15;;;;;;;;;;;;;;;22.58;20.91;97976.59;5031063;28;1994;-72
2022/02/28 08:46:40;;;;;;;;;;;;;;;22.57;20.98;97978.63;5011559;28;1039;-73
2022/02/28 08:49:06;;;;;;;;;;;;;;;22.16;21.16;97970.97;5036910;28;1973;-72
2022/02/28 08:51:32;;;;;;;;;;;;;;;21.79;21.53;97981.69;5033359;28;1066;-72
2022/02/28 08:53:57;;;;;;;;;;;;;;;21.99;21.63;97973.03;5016904;28;981;-72
2022/02/28 08:56:23;;;;;;;;;;;;;;;22.38;20.94;97978.81;4970101;28;1614;-72
2022/02/28 08:58:49;;;;;;;;;;;;;;;22.44;21.21;97979.88;5024213;28;1799;-72
2022/02/28 09:01:14;;;;;;;;;;;;;;;22.50;20.91;97983.75;5036418;28;1373;-72
2022/02/28 09:03:39;;;;;;;;;;;;;;;22.12;20.99;97978.75;5034330;28;1875;-72
2022/02/28 09:06:05;;;;;;;;;;;;;;;21.82;21.75;97983.63;5034953;28;1831;-72
2022/02/28 09:08:31;;;;;;;;;;;;;;;21.77;21.95;97977.72;5034720;28;1992;-72
2022/02/28 09:10:57;;;;;;;;;;;;;;;22.16;21.47;97987.19;4976346;28;1713;-72
2022/02/28 09:13:22;;;;;;;;;;;;;;;22.34;21.26;97981.78;4991820;28;960;-72
2022/02/28 09:15:48;;;;;;;;;;;;;;;22.40;20.93;97985.66;4950998;29;1701;-72
2022/02/28 09:18:13;;;;;;;;;;;;;;;22.41;20.87;97980.78;4946200;29;1410;-72
2022/02/28 09:20:39;;;;;;;;;;;;;;;21.98;21.45;97982.78;4909762;28;989;-72
2022/02/28 09:23:04;;;;;;;;;;;;;;;21.81;21.85;97981.22;4977195;28;1069;-72
2022/02/28 09:25:30;;;;;;;;;;;;;;;22.06;21.32;97974.88;4977710;28;1027;-72
2022/02/28 09:27:55;;;;;;;;;;;;;;;22.42;20.98;97971.00;4977621;28;1035;-72
2022/02/28 09:30:21;;;;;;;;;;;;;;;22.42;21.17;97971.81;4977382;28;2061;-72
2022/02/28 09:32:52;;;;;;;;;;;;;;;22.65;20.94;97967.88;5229846;22;3832;-72
2022/02/28 09:35:18;;;;;;;;;;;;;;;22.19;21.18;97975.75;5055068;28;1975;-73
2022/02/28 09:37:43;;;;;;;;;;;;;;;21.98;21.34;97970.66;5055776;28;938;-72
2022/02/28 09:40:09;;;;;;;;;;;;;;;21.79;21.99;97964.69;5056064;28;937;-72
2022/02/28 09:42:34;;;;;;;;;;;;;;;22.20;21.59;97970.88;5054208;28;1785;-72
2022/02/28 09:45:19;;;;;;;;;;;;;;;22.40;20.99;97970.69;5007315;28;1045;-73
2022/02/28 09:47:50;;;;;;;;;;;;;;;22.23;21.18;97973.59;5015919;28;1034;-72
2022/02/28 09:50:39;;;;;;;;;;;;;;;21.78;21.83;97971.63;5010665;28;1800;-72
2022/02/28 09:53:37;;;;;;;;;;;;;;;21.72;22.03;97964.91;4986425;28;1133;-72
2022/02/28 09:56:25;;;;;;;;;;;;;;;22.14;21.64;97970.63;4937377;29;1036;-72
2022/02/28 09:58:56;;;;;;;;;;;;;;;22.38;21.05;97976.00;4907759;29;1904;-72
2022/02/28 10:01:22;;;;;;;;;;;;;;;22.60;20.85;97983.41;4902077;29;1808;-72
2022/02/28 10:03:47;;;;;;;;;;;;;;;22.08;21.56;97969.56;4875458;29;1496;-72
2022/02/28 10:06:14;;;;;;;;;;;;;;;21.89;21.77;97967.69;4882583;29;1083;-72
2022/02/28 10:08:43;;;;;;;;;;;;;;;21.74;21.78;97973.75;4881121;29;1995;-72
2022/02/28 10:11:23;;;;;;;;;;;;;;;22.21;21.32;97967.56;4862609;29;1244;-72
2022/02/28 10:13:49;;;;;;;;;;;;;;;22.38;21.25;97964.66;4825655;29;1044;-72
2022/02/28 10:16:18;;;;;;;;;;;;;;;22.24;21.24;97961.00;4802009;29;2044;-72
2022/02/28 10:18:43;;;;;;;;;;;;;;;21.75;21.72;97966.81;4810100;29;2024;-72
2022/02/28 10:21:09;;;;;;;;;;;;;;;21.42;22.45;97962.50;4831645;29;1128;-73
2022/02/28 10:23:34;;;;;;;;;;;;;;;22.14;21.32;97967.78;4861882;29;993;-73
2022/02/28 10:26:25;;;;;;;;;;;;;;;22.33;21.35;97958.31;4821161;29;1003;-72
2022/02/28 10:29:11;;;;;;;;;;;;;;;22.40;21.00;97967.84;4803520;29;1904;-72
2022/02/28 10:31:59;;;;;;;;;;;;;;;21.99;21.43;97963.75;4801644;29;1040;-72
2022/02/28 10:34:32;;;;;;;;;;;;;;;21.79;21.73;97964.69;4807394;29;1033;-72
2022/02/28 10:37:30;;;;;;;;;;;;;;;22.27;21.42;97965.75;4825241;29;1043;-72
2022/02/28 10:39:57;;;;;;;;;;;;;;;22.36;21.04;97973.63;4825351;29;1024;-72
2022/02/28 10:42:22;;;;;;;;;;;;;;;22.41;20.98;97963.75;4831419;29;1072;-73
2022/02/28 10:44:48;;;;;;;;;;;;;;;22.13;21.47;97977.53;4852642;29;1046;-74
2022/02/28 10:47:14;;;;;;;;;;;;;;;21.76;21.84;97959.13;4861587;29;1038;-74
2022/02/28 10:49:39;;;;;;;;;;;;;;;21.67;22.07;97956.97;4861682;29;1910;-74
2022/02/28 10:52:09;;;;;;;;;;;;;;;22.17;21.40;97951.91;4890186;29;971;-74
2022/02/28 10:54:35;;;;;;;;;;;;;;;22.29;21.12;97963.28;4897949;29;1548;-74
2022/02/28 10:57:00;;;;;;;;;;;;;;;22.30;21.25;97959.22;4899234;29;996;-74
2022/02/28 10:59:30;;;;;;;;;;;;;;;21.85;21.59;97945.91;4899280;29;973;-74
2022/02/28 11:01:56;;;;;;;;;;;;;;;21.81;21.71;97950.91;4907292;29;1023;-74
2022/02/28 11:04:27;;;;;;;;;;;;;;;22.01;21.53;97953.53;4948876;28;1868;-74
2022/02/28 11:06:53;;;;;;;;;;;;;;;22.24;21.41;97955.34;4974844;28;1225;-74
2022/02/28 11:09:28;;;;;;;;;;;;;;;22.40;21.17;97956.50;4974871;28;1906;-74
2022/02/28 11:11:55;;;;;;;;;;;;;;;22.46;20.98;97955.47;4951988;28;1372;-74
2022/02/28 11:14:20;;;;;;;;;;;;;;;21.94;21.47;97952.97;4945838;29;1907;-74
2022/02/28 11:16:45;;;;;;;;;;;;;;;21.83;21.79;97953.28;4939782;29;1039;-74
2022/02/28 11:19:11;;;;;;;;;;;;;;;21.83;21.61;97944.78;4953785;29;1840;-74
2022/02/28 11:21:36;;;;;;;;;;;;;;;22.29;21.01;97951.94;4955907;29;1021;-74
2022/02/28 11:24:02;;;;;;;;;;;;;;;22.28;21.23;97961.72;4955974;29;1108;-74
2022/02/28 11:26:27;;;;;;;;;;;;;;;22.45;20.77;97955.94;4957592;28;952;-74
2022/02/28 11:28:53;;;;;;;;;;;;;;;21.99;21.35;97955.25;4999564;28;1985;-73
2022/02/28 11:31:18;;;;;;;;;;;;;;;21.77;21.83;97949.41;5031642;28;1689;-74
2022/02/28 11:34:06;;;;;;;;;;;;;;;22.09;21.26;97959.81;5029650;28;1132;-73
2022/02/28 11:36:46;;;;;;;;;;;;;;;22.93;20.46;97954.84;5052974;28;1090;-73
2022/02/28 11:39:12;;;;;;;;;;;;;;;22.28;20.77;97966.59;5053963;28;1173;-73
2022/02/28 11:41:37;;;;;;;;;;;;;;;21.90;21.32;97966.44;5054152;28;1047;-74
2022/02/28 11:44:03;;;;;;;;;;;;;;;21.87;21.67;97959.63;5053947;28;1162;-73
2022/02/28 11:46:29;;;;;;;;;;;;;;;22.27;21.16;97962.94;5053471;28;1059;-73
2022/02/28 11:48:55;;;;;;;;;;;;;;;22.60;20.68;97962.75;5060226;28;1977;-73
2022/02/28 11:51:24;;;;;;;;;;;;;;;22.73;20.38;97972.06;5064116;28;1842;-73
2022/02/28 11:53:52;;;;;;;;;;;;;;;22.44;20.69;97960.81;5056804;28;1026;-73
2022/02/28 11:56:18;;;;;;;;;;;;;;;21.98;21.28;97959.34;5073667;28;928;-73
2022/02/28 11:58:55;;;;;;;;;;;;;;;21.87;21.59;97967.34;5073723;28;1072;-73
2022/02/28 12:01:37;;;;;;;;;;;;;;;22.32;21.26;97956.69;5073574;28;1192;-74
2022/02/28 12:04:09;;;;;;;;;;;;;;;22.36;21.06;97951.72;5053258;28;977;-73
2022/02/28 12:06:47;;;;;;;;;;;;;;;22.61;20.41;97962.31;5056806;28;994;-73
2022/02/28 12:09:32;;;;;;;;;;;;;;;22.66;20.71;97943.13;5065157;28;2182;-73
2022/02/28 12:12:10;;;;;;;;;;;;;;;22.21;20.90;97956.22;5064199;28;1945;-73
2022/02/28 12:14:54;;;;;;;;;;;;;;;21.98;21.38;97959.34;5062230;28;1014;-73
2022/02/28 12:17:42;;;;;;;;;;;;;;;21.92;21.17;97955.47;5053599;28;968;-73
2022/02/28 12:20:23;;;;;;;;;;;;;;;22.36;20.86;97962.28;5014225;28;1951;-74
2022/02/28 12:22:54;;;;;;;;;;;;;;;22.53;20.78;97962.97;5033620;28;1381;-75
2022/02/28 12:25:40;;;;;;;;;;;;;;;22.53;20.84;97960.94;5026383;28;1351;-75
2022/02/28 12:28:19;;;;;;;;;;;;;;;21.87;21.20;97959.63;5027191;28;1987;-75
2022/02/28 12:30:47;;;;;;;;;;;;;;;21.90;21.14;97957.94;5027287;28;1553;-75
2022/02/28 12:33:13;;;;;;;;;;;;;;;22.03;21.10;97961.63;5030621;28;1624;-75
2022/02/28 12:35:38;;;;;;;;;;;;;;;22.24;21.08;97966.69;5045598;28;1637;-75
2022/02/28 12:38:03;;;;;;;;;;;;;;;22.36;20.67;97968.75;5046956;28;1694;-75
2022/02/28 12:40:30;;;;;;;;;;;;;;;22.51;20.64;97973.97;5047382;28;1611;-75
2022/02/28 12:42:56;;;;;;;;;;;;;;;22.61;20.50;97978.53;5047125;28;1512;-75
2022/02/28 12:45:21;;;;;;;;;;;;;;;22.09;20.88;97971.16;5047251;28;1525;-75
2022/02/28 12:47:47;;;;;;;;;;;;;;;21.81;21.22;97978.41;5046232;28;1434;-75
2022/02/28 12:50:12;;;;;;;;;;;;;;;22.36;20.85;97973.63;5005936;28;1911;-75
2022/02/28 12:52:38;;;;;;;;;;;;;;;22.43;20.86;97981.09;5007613;28;1684;-75
2022/02/28 12:55:04;;;;;;;;;;;;;;;22.59;20.32;97987.50;5012592;28;1493;-75
2022/02/28 12:57:29;;;;;;;;;;;;;;;22.61;20.40;97996.34;5029036;28;949;-75
2022/02/28 12:59:57;;;;;;;;;;;;;;;22.08;20.87;97983.72;4996989;28;985;-75
2022/02/28 13:02:27;;;;;;;;;;;;;;;21.79;21.34;97987.34;4997290;28;961;-75
2022/02/28 13:04:54;;;;;;;;;;;;;;;21.94;21.31;97989.78;4997130;28;995;-75
2022/02/28 13:07:20;;;;;;;;;;;;;;;22.29;20.86;97991.63;4997371;28;1442;-75